Latest Weather Observations for Hamilton Island

IDQ60801

Issued at 10:32 am EST Wednesday 29 July 2015 (issued every 30 minutes, with the page automatically refreshed every 10 minutes)

About weather observations | Map of weather stations | Latest weather observations for QLD | Other Formats
Station Details ID: 033106 Name: HAMILTON ISLAND AIRPORT Lat: -20.37 Lon: 148.95 Height: 58.66 m
Data from the previous 72 hours. | See also: Recent months at Hamilton Island
Date/Time
EST
Temp
°C
App
Temp
°C
Dew
Point
Rel
Hum
%
Delta-T
°C
Wind Press
QNH
hPa
Press
MSL
hPa
Rain
since 9 am
mm
Dir
 
Spd
km/h
Gust
km/h
Spd
kts
Gust
kts
29/10:30am 19.2 11.5 16.4 84 1.7 SSE 52 59 28 32 1025.9 - 0.0
29/10:27am 19.3 11.6 16.5 84 1.7 SSE 52 61 28 33 1025.9 - 0.0
29/10:07am 19.0 10.4 16.0 83 1.8 SSE 56 63 30 34 1026.0 - 0.0
29/10:04am 18.9 10.5 15.6 81 1.9 SSE 54 63 29 34 1026.0 - 0.0
29/10:00am 18.9 10.9 15.8 82 1.8 SSE 52 61 28 33 1025.9 - 0.0
29/09:53am 18.9 10.9 15.6 81 2.0 SSE 52 61 28 33 1026.0 - 0.0
29/09:51am 19.1 11.2 16.0 82 1.8 SSE 52 61 28 33 1026.0 - 0.0
29/09:36am 19.3 11.5 16.2 82 1.9 SSE 52 63 28 34 1026.0 - 0.0
29/09:30am 19.2 11.4 16.1 82 1.9 SSE 52 61 28 33 1026.0 - 0.0
29/09:00am 19.2 11.4 16.2 83 1.8 SSE 52 61 28 33 1025.9 1025.7 0.0
29/08:30am 19.5 11.7 16.2 81 2.0 SSE 52 63 28 34 1025.6 - 0.0
29/08:00am 19.5 11.4 16.3 82 1.9 SSE 54 61 29 33 1025.4 - 0.0
29/07:30am 19.4 11.6 16.1 81 2.0 SSE 52 61 28 33 1024.9 - 0.0
29/07:00am 19.3 11.6 16.5 84 1.7 SSE 52 63 28 34 1024.8 - 0.0
29/06:30am 19.3 11.3 16.7 85 1.6 SSE 54 65 29 35 1024.7 - 0.0
29/06:20am 19.0 11.6 16.2 84 1.7 SSE 50 65 27 35 1024.6 - 0.0
29/06:00am 18.5 11.3 15.9 85 1.5 SSE 48 57 26 31 1024.5 1024.3 0.0
29/05:30am 18.5 11.3 15.9 85 1.5 SSE 48 57 26 31 1024.3 - 0.0
29/05:00am 18.5 11.3 15.7 84 1.7 SSE 48 61 26 33 1024.0 - 0.0
29/04:30am 17.9 10.6 15.5 86 1.4 SSE 48 59 26 32 1023.9 - 0.0
29/04:00am 18.5 11.6 15.6 83 1.7 SSE 46 56 25 30 1023.7 - 0.0
29/03:30am 18.7 12.9 16.1 85 1.6 SSE 41 52 22 28 1023.7 - 0.0
29/03:00am 18.6 13.3 16.2 86 1.4 SSE 39 48 21 26 1023.9 1023.7 0.0
29/02:30am 19.0 13.1 16.6 86 1.4 SSE 43 50 23 27 1024.1 - 0.0
29/02:00am 19.6 13.9 17.2 86 1.5 SSE 43 54 23 29 1024.1 - 0.0
29/01:57am 19.4 13.5 16.8 85 1.6 SSE 43 52 23 28 1024.2 - 0.0
29/01:52am 19.5 13.0 16.7 84 1.7 SSE 46 54 25 29 1024.2 - 0.0
29/01:30am 19.5 12.2 16.5 83 1.8 SSE 50 56 27 30 1024.3 - 0.0
29/01:00am 19.6 13.2 16.8 84 1.7 SSE 46 54 25 29 1024.7 - 0.0
29/12:30am 19.4 13.0 15.9 80 2.1 SSE 44 50 24 27 1024.9 - 0.0
29/12:00am 19.6 13.4 15.9 79 2.2 SSE 43 48 23 26 1025.2 1025.0 0.0
 
Date/Time
EST
Temp
°C
App
Temp
°C
Dew
Point
Rel
Hum
%
Delta-T
°C
Wind Press
QNH
hPa
Press
MSL
hPa
Rain
since 9 am
mm
Dir
 
Spd
km/h
Gust
km/h
Spd
kts
Gust
kts
28/11:30pm 19.4 13.9 15.7 79 2.2 SE 39 48 21 26 1025.4 - 0.0
28/11:00pm 19.3 14.0 15.2 77 2.4 SE 37 46 20 25 1025.6 - 0.0
28/10:30pm 19.4 12.8 14.9 75 2.6 SE 43 48 23 26 1025.8 - 0.0
28/10:00pm 19.5 13.9 15.4 77 2.4 SE 39 46 21 25 1025.9 - 0.0
28/09:30pm 19.4 13.6 14.9 75 2.6 SE 39 46 21 25 1025.8 - 0.0
28/09:00pm 19.3 13.4 14.6 74 2.7 SE 39 44 21 24 1025.9 1025.7 0.0
28/08:30pm 19.1 13.1 14.4 74 2.7 SE 39 44 21 24 1025.8 - 0.0
28/08:00pm 19.1 12.6 14.1 73 2.9 SE 41 46 22 25 1025.7 - 0.0
28/07:30pm 19.1 12.8 14.6 75 2.6 SE 41 48 22 26 1025.4 - 0.0
28/07:00pm 18.9 12.4 14.0 73 2.8 SE 41 48 22 26 1025.1 - 0.0
28/06:30pm 18.9 11.6 13.5 71 3.1 SE 44 50 24 27 1024.8 - 0.0
28/06:00pm 18.7 11.4 13.3 71 3.1 SE 44 50 24 27 1024.5 1024.3 0.0
28/05:30pm 18.5 11.7 13.1 71 3.1 SE 41 46 22 25 1024.4 - 0.0
28/05:00pm 18.7 11.4 13.3 71 3.1 SE 44 52 24 28 1023.9 - 0.0
28/04:30pm 18.5 11.2 12.9 70 3.2 SE 43 50 23 27 1023.6 - 0.0
28/04:00pm 18.5 11.2 12.9 70 3.2 SE 43 50 23 27 1023.2 - 0.0
28/03:30pm 18.8 11.6 13.2 70 3.2 SE 43 50 23 27 1023.2 - 0.0
28/03:00pm 18.9 12.2 13.3 70 3.2 SE 41 48 22 26 1023.3 1023.1 0.0
28/02:30pm 18.9 12.1 13.1 69 3.3 SE 41 48 22 26 1023.3 - 0.0
28/02:00pm 19.7 12.8 12.7 64 3.9 SE 41 50 22 27 1023.4 - 0.0
28/01:30pm 18.6 10.5 11.9 65 3.7 SSE 46 54 25 29 1023.7 - 0.0
28/01:00pm 20.1 12.5 13.6 66 3.7 SSE 46 54 25 29 1024.1 - 0.0
28/12:30pm 19.2 10.2 11.7 62 4.1 SSE 50 56 27 30 1024.5 - 0.0
28/12:00pm 19.1 11.1 12.4 65 3.7 SSE 46 54 25 29 1024.9 1024.7 0.0
28/11:30am 19.1 10.5 12.8 67 3.6 SSE 50 59 27 32 1025.2 - 0.0
28/11:00am 19.5 9.6 12.5 64 3.9 SSE 56 63 30 34 1025.3 - 0.0
28/10:30am 19.2 9.6 12.2 64 3.9 SSE 54 63 29 34 1025.4 - 0.0
28/10:00am 19.1 10.2 13.1 68 3.4 SSE 52 61 28 33 1025.4 - 0.0
28/09:30am 19.2 10.4 13.4 69 3.3 SSE 52 59 28 32 1025.3 - 0.0
28/09:00am 19.1 9.5 13.3 69 3.3 SSE 56 65 30 35 1025.0 1024.8 0.2
28/08:30am 19.1 10.3 13.3 69 3.3 SSE 52 59 28 32 1024.6 - 0.2
28/08:00am 19.6 11.0 14.0 70 3.2 SSE 52 61 28 33 1024.2 - 0.2
28/07:30am 19.6 12.0 13.5 68 3.5 SSE 46 56 25 30 1023.8 - 0.2
28/07:00am 19.4 11.5 13.8 70 3.2 SSE 48 61 26 33 1023.4 - 0.2
28/06:45am 19.4 11.7 14.4 73 2.9 SSE 48 61 26 33 1023.3 - 0.2
28/06:30am 19.5 11.0 14.3 72 3.0 SSE 52 59 28 32 1023.0 - 0.2
28/06:00am 19.7 11.4 14.9 74 2.8 SSE 52 59 28 32 1022.7 1022.5 0.2
28/05:30am 20.2 13.6 16.4 79 2.3 SSE 46 56 25 30 1022.8 - 0.2
28/05:00am 20.3 13.8 16.7 80 2.2 SSE 46 54 25 29 1022.5 - 0.2
28/04:30am 20.4 16.3 19.2 93 0.8 SSE 39 44 21 24 1022.5 - 0.2
28/04:00am 20.5 17.3 19.5 94 0.6 SSE 35 39 19 21 1022.5 - 0.2
28/03:30am 20.5 17.9 19.5 94 0.6 SSE 32 35 17 19 1022.8 - 0.2
28/03:20am 20.5 17.9 19.5 94 0.6 SSE 32 35 17 19 1022.8 - 0.2
28/03:06am 20.6 18.0 19.4 93 0.8 SSE 32 35 17 19 1022.8 - 0.2
28/03:00am 20.6 18.0 19.4 93 0.8 SSE 32 35 17 19 1022.8 1022.6 0.2
28/02:30am 20.6 18.4 19.6 94 0.6 SSE 30 35 16 19 1023.0 - 0.2
28/02:00am 20.6 18.4 19.6 94 0.6 SSE 30 32 16 17 1023.0 - 0.2
28/01:30am 20.7 19.0 19.7 94 0.6 SE 28 32 15 17 1023.2 - 0.2
28/01:00am 20.7 17.5 19.5 93 0.8 SSE 35 39 19 21 1023.5 - 0.2
28/12:30am 20.7 17.6 19.7 94 0.6 SSE 35 41 19 22 1023.4 - 0.2
28/12:00am 20.8 18.7 19.8 94 0.6 SSE 30 37 16 20 1023.6 1023.4 0.2
 
Date/Time
EST
Temp
°C
App
Temp
°C
Dew
Point
Rel
Hum
%
Delta-T
°C
Wind Press
QNH
hPa
Press
MSL
hPa
Rain
since 9 am
mm
Dir
 
Spd
km/h
Gust
km/h
Spd
kts
Gust
kts
27/11:30pm 20.7 19.3 19.7 94 0.6 SSE 26 32 14 17 1023.8 - 0.2
27/11:00pm 20.8 20.6 19.8 94 0.6 SSE 20 28 11 15 1023.8 - 0.2
27/10:30pm 20.8 20.6 19.8 94 0.6 SSE 20 26 11 14 1024.0 - 0.2
27/10:00pm 20.9 21.1 20.1 95 0.5 SSE 19 22 10 12 1023.7 - 0.2
27/09:30pm 21.0 21.0 19.8 93 0.8 SSE 19 20 10 11 1023.6 - 0.2
27/09:12pm 21.0 21.5 20.0 94 0.6 SE 17 19 9 10 1023.6 - 0.2
27/09:00pm 20.9 21.7 19.9 94 0.6 SE 15 17 8 9 1023.6 1023.4 0.2
27/08:51pm 20.9 21.7 19.9 94 0.6 SE 15 17 8 9 1023.5 - 0.2
27/08:30pm 20.9 21.7 19.9 94 0.6 SE 15 17 8 9 1023.3 - 0.2
27/08:00pm 21.0 21.3 19.6 92 0.9 SE 17 19 9 10 1023.0 - 0.2
27/07:30pm 21.2 21.2 19.8 92 0.9 SE 19 22 10 12 1022.7 - 0.2
27/07:00pm 21.1 21.0 19.9 93 0.8 ESE 20 24 11 13 1022.4 - 0.2
27/06:33pm 21.1 21.0 19.9 93 0.8 ESE 20 24 11 13 1021.9 - 0.2
27/06:30pm 21.1 21.0 19.9 93 0.8 ESE 20 24 11 13 1021.9 - 0.2
27/06:00pm 21.1 21.4 19.6 91 1.0 ESE 17 19 9 10 1021.5 1021.3 0.2
27/05:30pm 21.2 21.1 19.5 90 1.1 ESE 19 22 10 12 1021.2 - 0.2
27/05:00pm 21.6 21.2 19.3 87 1.5 ESE 20 24 11 13 1020.8 - 0.2
27/04:30pm 21.8 20.5 19.0 84 1.8 ESE 24 26 13 14 1020.4 - 0.2
27/04:00pm 22.0 21.5 19.2 84 1.8 E 20 24 11 13 1020.1 - 0.2
27/03:30pm 22.5 21.1 18.7 79 2.4 E 24 28 13 15 1020.2 - 0.2
27/03:00pm 22.8 22.3 19.0 79 2.4 E 20 24 11 13 1020.1 1019.9 0.2
27/02:30pm 22.7 22.3 18.9 79 2.4 ESE 19 20 10 11 1020.4 - 0.2
27/02:00pm 22.8 23.6 19.0 79 2.4 ESE 13 15 7 8 1020.6 - 0.2
27/01:30pm 23.5 23.9 19.0 76 2.9 SSE 15 17 8 9 1021.0 - 0.2
27/01:00pm 23.7 24.6 18.4 72 3.3 SSE 11 13 6 7 1021.3 - 0.2
27/12:30pm 24.0 25.4 18.6 72 3.4 SE 9 11 5 6 1021.7 - 0.2
27/12:00pm 23.4 24.0 17.8 71 3.5 ESE 11 13 6 7 1022.1 1021.9 0.2
27/11:30am 23.7 24.2 18.4 72 3.3 SSE 13 15 7 8 1022.7 - 0.0
27/11:00am 22.7 23.6 19.3 81 2.2 SSE 13 17 7 9 1023.1 - 0.0
27/10:30am 22.4 22.7 19.6 84 1.8 SSE 17 20 9 11 1023.4 - 0.0
27/10:11am 21.6 21.1 19.2 86 1.5 SSE 20 26 11 14 1023.6 - 0.0
27/10:00am 21.3 21.1 19.4 89 1.2 S 19 26 10 14 1023.7 - 0.0
27/09:30am 20.7 20.8 19.2 91 0.9 S 17 22 9 12 1024.0 - 0.0
27/09:00am 20.9 20.6 19.2 90 1.1 S 19 24 10 13 1023.8 1023.6 0.0
27/08:30am 20.7 20.4 19.2 91 0.9 S 19 24 10 13 1023.6 - 0.0
27/08:00am 20.5 20.9 19.0 91 0.9 S 15 20 8 11 1023.2 - 0.0
27/07:30am 20.0 20.3 18.8 93 0.8 SW 15 19 8 10 1022.7 - 0.0
27/07:19am 20.1 20.8 18.9 93 0.8 SW 13 17 7 9 1022.7 - 0.0
27/07:00am 20.0 20.9 19.2 95 0.5 SSW 13 15 7 8 1022.5 - 0.0
27/06:36am 19.9 21.1 19.1 95 0.5 SSW 11 13 6 7 1022.3 - 0.0
27/06:30am 19.9 21.1 19.1 95 0.5 SSW 11 11 6 6 1022.2 - 0.0
27/06:00am 20.1 23.5 19.3 95 0.5 CALM 0 6 0 3 1022.0 1021.8 0.0
27/05:30am 20.1 21.4 19.4 96 0.4 SW 11 13 6 7 1021.6 - 0.0
27/05:00am 20.1 21.8 19.4 96 0.4 SW 9 11 5 6 1021.4 - 0.0
27/04:39am 20.0 22.1 19.3 96 0.4 SW 7 9 4 5 1021.3 - 0.0
27/04:30am 20.0 22.1 19.3 96 0.4 SW 7 9 4 5 1021.3 - 0.0
27/04:00am 20.1 22.2 19.4 96 0.4 S 7 9 4 5 1021.4 - 0.0
27/03:46am 20.2 23.3 19.5 96 0.4 S 2 6 1 3 1021.5 - 0.0
27/03:30am 20.2 22.9 19.5 96 0.4 SW 4 9 2 5 1021.6 - 0.0
27/03:28am 20.3 22.7 19.6 96 0.4 SW 6 11 3 6 1021.7 - 0.0
27/03:00am 20.3 22.6 19.8 97 0.3 SSW 7 9 4 5 1021.8 1021.6 0.0
27/02:30am 20.3 23.5 19.8 97 0.3 SSE 2 7 1 4 1021.9 - 0.0
27/02:29am 20.3 23.5 19.8 97 0.3 SSE 2 7 1 4 1021.9 - 0.0
27/02:08am 20.4 24.1 19.9 97 0.3 CALM 0 6 0 3 1022.0 - 0.0
27/02:00am 20.4 22.9 19.9 97 0.3 SE 6 7 3 4 1022.0 - 0.0
27/01:30am 20.2 23.8 19.7 97 0.3 CALM 0 0 0 0 1022.3 - 0.0
27/01:09am 20.2 23.8 19.7 97 0.3 CALM 0 0 0 0 1022.5 - 0.0
27/01:07am 20.2 23.8 19.7 97 0.3 CALM 0 0 0 0 1022.6 - 0.0
27/01:00am 20.3 23.9 19.8 97 0.3 CALM 0 0 0 0 1022.6 - 0.0
27/12:48am 20.4 24.1 19.9 97 0.3 CALM 0 0 0 0 1022.5 - 0.0
27/12:30am 20.3 23.4 19.6 96 0.4 SSW 2 7 1 4 1022.6 - 0.0
27/12:00am 20.2 22.9 19.5 96 0.4 SSW 4 7 2 4 1022.8 1022.6 0.0
 
Date/Time
EST
Temp
°C
App
Temp
°C
Dew
Point
Rel
Hum
%
Delta-T
°C
Wind Press
QNH
hPa
Press
MSL
hPa
Rain
since 9 am
mm
Dir
 
Spd
km/h
Gust
km/h
Spd
kts
Gust
kts
26/11:30pm 20.5 24.1 19.7 95 0.5 CALM 0 0 0 0 1022.9 - 0.0
26/11:00pm 20.5 24.1 19.7 95 0.5 CALM 0 0 0 0 1023.0 - 0.0
26/10:30pm 20.5 24.1 19.7 95 0.5 CALM 0 0 0 0 1022.9 - 0.0
26/10:00pm 20.7 24.4 19.9 95 0.5 CALM 0 0 0 0 1023.1 - 0.0
26/09:30pm 20.6 24.2 19.8 95 0.5 CALM 0 0 0 0 1023.0 - 0.0
26/09:00pm 20.7 24.3 19.7 94 0.6 CALM 0 0 0 0 1022.8 1022.6 0.0
26/08:30pm 20.9 23.4 19.9 94 0.6 ENE 6 7 3 4 1022.3 - 0.0
26/08:00pm 20.8 23.1 19.8 94 0.6 ENE 7 11 4 6 1022.0 - 0.0
26/07:30pm 21.0 22.6 20.0 94 0.6 E 11 13 6 7 1021.7 - 0.0
26/07:00pm 20.8 23.1 19.8 94 0.6 ESE 7 9 4 5 1021.3 - 0.0
26/06:30pm 20.9 22.9 19.9 94 0.6 ENE 9 13 5 7 1020.6 - 0.0
26/06:00pm 21.0 21.4 19.8 93 0.8 E 17 19 9 10 1020.1 1019.9 0.0
26/05:30pm 21.3 22.1 19.8 91 1.0 E 15 17 8 9 1019.7 - 0.0
26/05:18pm 21.5 22.7 19.8 90 1.1 E 13 15 7 8 1019.7 - 0.0
26/05:00pm 21.5 22.6 19.6 89 1.2 E 13 17 7 9 1019.4 - 0.0
26/04:46pm 21.7 22.1 19.8 89 1.2 E 17 19 9 10 1019.1 - 0.0
26/04:30pm 21.6 21.9 19.7 89 1.2 E 17 20 9 11 1019.1 - 0.0
26/04:00pm 21.9 23.4 19.8 88 1.3 SE 11 11 6 6 1018.9 - 0.0
26/03:30pm 22.2 23.7 19.7 86 1.6 SE 11 11 6 6 1018.6 - 0.0
26/03:00pm 22.2 23.8 19.9 87 1.5 SE 11 11 6 6 1018.7 1018.6 0.0
26/02:30pm 22.4 23.6 19.9 86 1.6 SE 13 13 7 7 1018.8 - 0.0
26/02:00pm 22.6 23.4 19.9 85 1.7 SE 15 17 8 9 1019.1 - 0.0
26/01:59pm 22.6 23.5 20.1 86 1.6 SE 15 17 8 9 1019.1 - 0.0
26/01:42pm 23.0 24.0 20.3 85 1.8 SE 15 17 8 9 1019.2 - 0.0
26/01:30pm 22.4 23.2 19.9 86 1.6 SE 15 17 8 9 1019.5 - 0.0
26/01:00pm 21.4 22.8 19.5 89 1.2 SE 11 13 6 7 1019.9 - 0.0
26/12:31pm 21.0 22.4 19.5 91 1.0 ESE 11 13 6 7 1020.3 - 0.0
26/12:30pm 20.9 22.2 19.4 91 1.0 ESE 11 13 6 7 1020.3 - 0.0
26/12:21pm 21.4 22.9 19.7 90 1.1 ESE 11 13 6 7 1020.5 - 0.0
26/12:00pm 21.8 22.5 19.7 88 1.3 SSE 15 17 8 9 1021.0 1020.8 0.0
26/11:44am 21.5 22.5 20.3 93 0.8 SSE 15 17 8 9 1021.5 - 0.0
26/11:30am 21.0 21.3 19.5 91 1.0 S 17 22 9 12 1021.7 - 0.0
26/11:00am 21.1 21.4 19.6 91 1.0 S 17 24 9 13 1022.1 - 0.0

Other Formats:

Comma delimited format used in spreadsheet applications
http://www.bom.gov.au/fwo/IDQ60801/IDQ60801.94368.axf

JavaScript Object Notation format (JSON) in row-major order
http://www.bom.gov.au/fwo/IDQ60801/IDQ60801.94368.json